Prinsendam — PBGH — position and weather

sailwx.info

Track history (hours):
 
Tides and Currents Weather Stations Pressure Air Temp Water Temp Dewpoint Dewpoint Depression Visibility Wind Speed Wind Dir Waves Ship Positions

Prinsendam

Operator: Holland America Line

Last reported at 2017-Jun-23 18:30 UTC. Time now 2017-Jun-23 18:51 UTC.
Position N 63°30' E 009°04'.

Type: Ship. MMSI: 244126000.

Date/timePositionNaut miles runAvg speedWind from/ knotsBaromVisibWave heightAir tempDewpointWater temp
2017-Jun-23 18:30N 63°30' E 009°04'917.5
2017-Jun-23 18:00N 63°34' E 009°21'918.0
2017-Jun-23 17:31N 63°39' E 009°38'713.1
2017-Jun-23 17:00N 63°35' E 009°50'917.3
2017-Jun-23 16:31N 63°28' E 010°02'917.1
2017-Jun-23 16:00N 63°29' E 010°21'3 5.5
2017-Jun-23 15:29N 63°26' E 010°24'0 0.0
2017-Jun-23 14:59N 63°26' E 010°24'0 0.0
2017-Jun-23 13:59N 63°26' E 010°24'0 0.0
2017-Jun-23 13:29N 63°26' E 010°24'0 0.0
2017-Jun-23 12:59N 63°26' E 010°24'0 0.0
2017-Jun-23 12:29N 63°26' E 010°24'0 0.0
2017-Jun-23 11:59N 63°26' E 010°24'0 0.0
2017-Jun-23 11:29N 63°26' E 010°24'0 0.0
2017-Jun-23 10:59N 63°26' E 010°24'0 0.0
2017-Jun-23 10:29N 63°26' E 010°24'0 0.0
2017-Jun-23 09:59N 63°26' E 010°24'0 0.0
2017-Jun-23 09:29N 63°26' E 010°24'1 3.1
2017-Jun-23 09:01N 63°27' E 010°21'815.0
2017-Jun-23 08:30N 63°28' E 010°04'714.8
2017-Jun-23 08:00N 63°33' E 009°51'815.3
2017-Jun-23 07:30N 63°40' E 009°44'816.1
2017-Jun-23 07:01N 63°37' E 009°28'612.8
2017-Jun-23 06:30N 63°39' E 009°15'611.1
2017-Jun-23 06:01N 63°45' E 009°13'713.6
2017-Jun-23 05:30N 63°52' E 009°15'815.6
2017-Jun-23 05:00N 63°58' E 009°24'5565.5
2017-Jun-23 05:00N 63°54' E 009°18'1326.3 140 / 131001.010.8 11.0 9.011.0
2017-Jun-23 04:30N 64°05' E 009°32'715.0
2017-Jun-23 04:00N 64°12' E 009°39'6853.5
2017-Jun-23 04:00N 64°06' E 009°36'1428.1 140 / 81001.810.8 11.0 9.011.0
2017-Jun-23 03:30N 64°19' E 009°46'1314.2
2017-Jun-23 02:34N 64°32' E 009°53'315.4
2017-Jun-23 02:23N 64°35' E 009°54'615.5
2017-Jun-23 02:00N 64°41' E 009°57'8714.5
2017-Jun-22 20:00N 66°06' E 010°42'2421.3 070 / 151006.010.8 9.0 6.911.0
2017-Jun-22 18:52N 66°30' E 010°52'10316.3
2017-Jun-22 12:34N 68°07' E 012°16'118.1
2017-Jun-22 12:30N 68°08' E 012°18'918.1
2017-Jun-22 12:00N 68°16' E 012°32'918.3
2017-Jun-22 11:30N 68°23' E 012°47'918.1
2017-Jun-22 11:00N 68°30' E 013°02'918.1
2017-Jun-22 10:30N 68°37' E 013°17'918.4
2017-Jun-22 10:00N 68°45' E 013°32'918.2
2017-Jun-22 09:30N 68°52' E 013°47'918.1
2017-Jun-22 09:00N 68°59' E 014°02'917.9
2017-Jun-22 08:30N 69°06' E 014°17'917.8
2017-Jun-22 08:00N 69°13' E 014°33'8630.3
2017-Jun-22 08:00N 69°06' E 014°24'1734.2 050 / 171009.610.8 10.0 9.010.0
2017-Jun-22 07:30N 69°20' E 014°49'918.1
2017-Jun-22 07:00N 69°27' E 015°06'917.9
2017-Jun-22 06:30N 69°33' E 015°25'917.5
2017-Jun-22 06:00N 69°39' E 015°43'917.2
2017-Jun-22 05:30N 69°45' E 016°01'612.8
2017-Jun-22 05:00N 69°48' E 016°18'1615.8 050 / 161009.810.8 10.0 7.9 8.0
2017-Jun-22 04:00N 70°00' E 016°48'1918.7 070 / 171010.010.8 10.0 7.9 8.0
2017-Jun-22 03:00N 70°12' E 017°30'2721.8 030 / 191009.910.8 10.0 7.9 8.0
2017-Jun-22 01:46N 70°28' E 018°33'519.2
2017-Jun-22 01:30N 70°30' E 018°47'919.1
2017-Jun-22 01:00N 70°34' E 019°13'4445.5
2017-Jun-22 01:00N 70°30' E 019°12'1224.1 040 / 201009.310.8 7.0 5.9 7.2
2017-Jun-22 00:30N 70°38' E 019°40'918.4
2017-Jun-22 00:00N 70°41' E 020°05'3317.7
2017-Jun-21 22:09N 70°53' E 021°38'317.5
2017-Jun-21 22:00N 70°54' E 021°45'3456.9
2017-Jun-21 22:00N 70°54' E 021°54'612.3 030 / 241008.3 5.4 6.0 6.0 6.5
2017-Jun-21 21:30N 70°57' E 022°09'714.2
2017-Jun-21 21:00N 71°00' E 022°30'21816.9 030 / 221008.1 5.4 6.0 6.0 6.5
2017-Jun-21 20:59N 71°01' E 022°34'917.6
2017-Jun-21 20:30N 71°04' E 022°59'917.4
2017-Jun-21 20:00N 71°07' E 023°24'917.7
2017-Jun-21 19:30N 71°10' E 023°49'917.7
2017-Jun-21 19:00N 71°12' E 024°16'918.2
2017-Jun-21 18:30N 71°12' E 024°44'918.3
2017-Jun-21 17:59N 71°12' E 025°13'919.0
2017-Jun-21 17:30N 71°12' E 025°42'918.6
2017-Jun-21 17:00N 71°09' E 026°10'816.8
2017-Jun-21 16:30N 71°01' E 026°19'815.0
2017-Jun-21 16:00N 70°58' E 025°58'1 2.4
2017-Jun-21 15:28N 70°59' E 025°58'0 0.0
2017-Jun-21 14:58N 70°59' E 025°58'0 0.0
2017-Jun-21 14:28N 70°59' E 025°58'0 0.0
2017-Jun-21 11:37N 70°59' E 025°58'1 0.5
2017-Jun-21 09:13N 70°58' E 025°58'911.4
2017-Jun-21 08:24N 71°04' E 026°20'717.7
2017-Jun-21 08:00N 71°09' E 026°05'918.0
2017-Jun-21 07:31N 71°12' E 025°39'917.7
2017-Jun-21 07:00N 71°13' E 025°11'918.0
2017-Jun-21 06:30N 71°12' E 024°44'917.9
2017-Jun-21 06:00N 71°11' E 024°16'917.8
2017-Jun-21 05:30N 71°10' E 023°49'918.2
2017-Jun-21 05:00N 71°06' E 023°23'918.4
2017-Jun-21 04:30N 71°03' E 022°57'918.0
2017-Jun-21 04:00N 70°59' E 022°32'918.3
2017-Jun-21 03:30N 70°56' E 022°06'918.1
2017-Jun-21 03:00N 70°52' E 021°40'2617.4
2017-Jun-21 01:29N 70°41' E 020°28'917.3
2017-Jun-21 01:00N 70°38' E 020°04'817.2
2017-Jun-21 00:30N 70°35' E 019°40'917.6
2017-Jun-21 00:00N 70°31' E 019°16'917.4
2017-Jun-20 23:30N 70°27' E 018°53'817.4
2017-Jun-20 23:01N 70°24' E 018°30'029.8
2017-Jun-20 23:00N 70°24' E 018°30'918.6 040 / 141002.010.8 9.0 8.010.0
2017-Jun-20 22:30N 70°18' E 018°09'1717.9
2017-Jun-20 21:33N 70°06' E 017°35'118.7
2017-Jun-20 21:31N 70°05' E 017°33'918.2
2017-Jun-20 21:00N 69°58' E 017°14'14919.7
2017-Jun-20 13:27N 68°12' E 012°24'3121.4
2017-Jun-20 12:00N 67°48' E 011°30'7518.7 150 / 6998.010.8 12.010.111.0
2017-Jun-20 08:00N 66°42' E 010°00'1919.4 240 / 15995.010.8 10.0 7.910.0
2017-Jun-20 07:00N 66°24' E 009°42'18717.0 240 / 18955.010.8 13.011.110.0
2017-Jun-19 20:00N 63°36' E 006°30'4618.0 250 / 281006.3 5.4 10.0 7.910.8
2017-Jun-19 17:26N 62°54' E 005°50'818.0
2017-Jun-19 17:00N 62°46' E 005°44'918.1
2017-Jun-19 16:30N 62°37' E 005°40'816.7
2017-Jun-19 15:59N 62°29' E 005°46'714.8
2017-Jun-19 15:30N 62°27' E 006°01'5 9.3
2017-Jun-19 15:00N 62°28' E 006°11'1 1.6
2017-Jun-19 14:28N 62°28' E 006°09'0 0.0
2017-Jun-19 13:30N 62°28' E 006°09'0 0.0
2017-Jun-19 13:00N 62°28' E 006°09'0 0.0
2017-Jun-19 12:27N 62°28' E 006°09'0 0.0
2017-Jun-19 12:00N 62°28' E 006°09'0 0.0
2017-Jun-19 11:30N 62°28' E 006°09'0 0.0
2017-Jun-19 11:00N 62°28' E 006°09'0 0.0
2017-Jun-19 10:30N 62°28' E 006°09'0 0.0
2017-Jun-19 10:00N 62°28' E 006°09'0 0.0
2017-Jun-19 09:31N 62°28' E 006°09'0 0.0
2017-Jun-19 09:01N 62°28' E 006°09'0 0.0
2017-Jun-19 08:30N 62°28' E 006°09'0 0.0
2017-Jun-19 08:01N 62°28' E 006°09'0 0.0
2017-Jun-19 07:30N 62°28' E 006°09'0 0.0
2017-Jun-19 07:00N 62°28' E 006°09'0 0.0
2017-Jun-19 06:30N 62°28' E 006°09'0 0.0
2017-Jun-19 06:00N 62°28' E 006°09'0 0.0
2017-Jun-19 05:30N 62°28' E 006°09'1 1.8
2017-Jun-19 05:00N 62°28' E 006°11'510.4
2017-Jun-19 04:30N 62°27' E 005°60'612.9
2017-Jun-19 04:00N 62°29' E 005°46'5382.0
2017-Jun-19 04:00N 62°24' E 005°42'815.7 240 / 341012.910.8 12.010.112.0
2017-Jun-19 03:30N 62°29' E 005°30'816.1
2017-Jun-19 03:00N 62°26' E 005°14'2240.7
2017-Jun-19 03:00N 62°24' E 005°12'713.7 220 / 261013.510.8 11.0 9.012.0
2017-Jun-19 02:30N 62°21' E 004°59'918.8
2017-Jun-19 02:00N 62°15' E 004°43'6616.4
2017-Jun-18 22:00N 61°12' E 004°06'2424.0 230 / 231016.0 5.4 11.011.011.5
2017-Jun-18 21:00N 60°48' E 004°06'9218.5 230 / 231016.7 5.4 12.012.013.0
2017-Jun-18 16:01N 59°16' E 004°11'719.2
2017-Jun-18 15:39N 59°09' E 004°11'1219.2
2017-Jun-18 15:00N 58°57' E 004°10'918.9
2017-Jun-18 14:30N 58°47' E 004°10'1718.8
2017-Jun-18 13:35N 58°30' E 004°10'218.9
2017-Jun-18 13:30N 58°28' E 004°10'918.7
2017-Jun-18 13:00N 58°19' E 004°12'1919.0
2017-Jun-18 12:00N 58°00' E 004°06'15018.8 280 / 181018.6 5.4 17.516.713.0
2017-Jun-18 04:00N 55°30' E 004°06'9819.5 250 / 271020.0 5.4 15.013.213.0
2017-Jun-17 23:00N 53°54' E 004°36'8322.5 240 / 91024.0 5.4 15.014.114.0
2017-Jun-17 22:58N 54°02' E 004°39'2317.8
2017-Jun-17 21:39N 53°39' E 004°48'415.8
2017-Jun-17 21:23N 53°35' E 004°49'615.1
2017-Jun-17 21:00N 53°30' E 004°46'919.5
2017-Jun-17 20:31N 53°21' E 004°40'1019.4
2017-Jun-17 20:01N 53°12' E 004°33'1019.1
2017-Jun-17 19:31N 53°04' E 004°26'918.7
2017-Jun-17 19:01N 52°55' E 004°19'292.2
2017-Jun-17 19:00N 52°54' E 004°18'815.8 200 / 41023.8 5.4 20.017.615.8
2017-Jun-17 18:30N 52°47' E 004°12'815.9
2017-Jun-17 18:00N 52°39' E 004°13'918.1
2017-Jun-17 17:31N 52°33' E 004°23'612.8
2017-Jun-17 17:00N 52°28' E 004°31'3 6.9
2017-Jun-17 16:31N 52°28' E 004°36'1 2.1
2017-Jun-17 16:00N 52°28' E 004°38'4 8.0
2017-Jun-17 15:31N 52°26' E 004°44'4 8.2
2017-Jun-17 15:00N 52°25' E 004°51'3 6.9
2017-Jun-17 14:30N 52°23' E 004°55'0 0.2
2017-Jun-17 13:30N 52°23' E 004°55'0 0.0
2017-Jun-17 13:00N 52°23' E 004°55'0 0.0
2017-Jun-17 12:30N 52°23' E 004°55'0 0.0
2017-Jun-17 12:00N 52°23' E 004°55'0 0.0
2017-Jun-17 11:30N 52°23' E 004°55'0 0.0
2017-Jun-17 11:00N 52°23' E 004°55'0 0.0
2017-Jun-17 10:30N 52°23' E 004°55'0 0.0
2017-Jun-17 10:00N 52°23' E 004°55'0 0.0
2017-Jun-17 09:30N 52°23' E 004°55'0 0.0
2017-Jun-17 09:00N 52°23' E 004°55'0 0.0
2017-Jun-17 08:30N 52°23' E 004°55'0 0.0
2017-Jun-17 08:00N 52°23' E 004°55'0 0.0
2017-Jun-17 07:30N 52°23' E 004°55'0 0.0
2017-Jun-17 07:00N 52°23' E 004°55'0 0.0
2017-Jun-17 06:30N 52°23' E 004°55'0 0.0
2017-Jun-17 06:00N 52°23' E 004°55'0 0.0
2017-Jun-17 05:30N 52°23' E 004°55'0 0.0
2017-Jun-17 05:00N 52°23' E 004°55'0 0.0
2017-Jun-17 04:30N 52°23' E 004°55'0 0.0
2017-Jun-17 04:00N 52°23' E 004°55'0 0.3
2017-Jun-17 03:30N 52°23' E 004°55'2 3.5
2017-Jun-17 03:00N 52°24' E 004°53'4 7.8
2017-Jun-17 02:30N 52°26' E 004°47'4 7.9
2017-Jun-17 02:00N 52°27' E 004°41'3 5.7
2017-Jun-17 01:30N 52°28' E 004°37'1 1.2
2017-Jun-17 01:01N 52°28' E 004°36'4 7.2
2017-Jun-17 00:30N 52°28' E 004°30'5 9.0
2017-Jun-17 00:00N 52°29' E 004°22'714.6
2017-Jun-16 23:30N 52°29' E 004°10'918.9
2017-Jun-16 23:00N 52°26' E 003°56'816.1
2017-Jun-16 22:30N 52°25' E 003°42'917.4
2017-Jun-16 22:00N 52°19' E 003°32'1326.2
2017-Jun-16 21:30N 52°06' E 003°26'5 9.6
2017-Jun-16 21:00N 52°02' E 003°25'816.2
2017-Jun-16 20:30N 51°54' E 003°23'816.8
2017-Jun-16 20:00N 51°46' E 003°17'713.7
2017-Jun-16 19:30N 51°40' E 003°20'917.5
2017-Jun-16 19:00N 51°31' E 003°26'714.7
2017-Jun-16 18:30N 51°26' E 003°34'5 9.0
2017-Jun-16 18:00N 51°26' E 003°41'714.8
2017-Jun-16 17:30N 51°21' E 003°50'612.3
2017-Jun-16 17:00N 51°25' E 003°57'3 6.6
2017-Jun-16 16:30N 51°23' E 004°02'510.8
2017-Jun-16 16:00N 51°24' E 004°11'510.8
2017-Jun-16 15:30N 51°20' E 004°16'4 8.0
2017-Jun-16 15:01N 51°16' E 004°18'4 4.5
2017-Jun-16 14:00N 51°13' E 004°24'0 0.0
2017-Jun-16 13:30N 51°13' E 004°24'0 0.0
2017-Jun-16 13:00N 51°13' E 004°24'0 0.0
2017-Jun-16 12:30N 51°13' E 004°24'0 0.0
2017-Jun-16 12:00N 51°13' E 004°24'0 0.0
2017-Jun-16 11:30N 51°13' E 004°24'0 0.0
2017-Jun-16 11:00N 51°13' E 004°24'0 0.0
2017-Jun-16 10:30N 51°13' E 004°24'0 0.0
2017-Jun-16 10:00N 51°13' E 004°24'0 0.0
2017-Jun-16 09:30N 51°13' E 004°24'0 0.0
2017-Jun-16 09:00N 51°13' E 004°24'0 0.0
2017-Jun-16 08:30N 51°13' E 004°24'0 0.0
2017-Jun-16 08:00N 51°13' E 004°24'0 0.0
2017-Jun-16 07:30N 51°13' E 004°24'0 0.0
2017-Jun-16 07:00N 51°13' E 004°24'0 0.0
2017-Jun-16 06:30N 51°13' E 004°24'0 0.0
2017-Jun-16 06:00N 51°13' E 004°24'0 0.0
2017-Jun-16 05:30N 51°13' E 004°24'0 0.0
2017-Jun-16 05:00N 51°13' E 004°24'0 0.0
2017-Jun-16 04:30N 51°13' E 004°24'0 0.0
2017-Jun-16 04:00N 51°13' E 004°24'0 0.0
2017-Jun-16 03:30N 51°13' E 004°24'0 0.0
2017-Jun-16 03:00N 51°13' E 004°24'0 0.0
2017-Jun-16 02:30N 51°13' E 004°24'0 0.0
2017-Jun-16 02:00N 51°13' E 004°24'0 0.0
2017-Jun-16 01:30N 51°13' E 004°24'0 0.0
2017-Jun-16 01:00N 51°13' E 004°24'0 0.0
2017-Jun-16 00:30N 51°13' E 004°24'0 0.0
2017-Jun-16 00:00N 51°13' E 004°24'0 0.0
2017-Jun-15 23:30N 51°13' E 004°24'0 0.0
2017-Jun-15 23:00N 51°13' E 004°24'0 0.0
2017-Jun-15 22:30N 51°13' E 004°24'0 0.0
2017-Jun-15 22:00N 51°13' E 004°24'0 0.0
2017-Jun-15 21:30N 51°13' E 004°24'0 0.0
2017-Jun-15 21:00N 51°13' E 004°24'0 0.0
2017-Jun-15 20:30N 51°13' E 004°24'0 0.0
2017-Jun-15 20:00N 51°13' E 004°24'0 0.0
2017-Jun-15 19:30N 51°13' E 004°24'0 0.0
2017-Jun-15 19:00N 51°13' E 004°24'0 0.0
2017-Jun-15 18:30N 51°13' E 004°24'0 0.0
2017-Jun-15 18:00N 51°13' E 004°24'0 0.0
2017-Jun-15 17:30N 51°13' E 004°24'0 0.0
2017-Jun-15 17:00N 51°13' E 004°24'0 0.0
2017-Jun-15 16:30N 51°13' E 004°24'0 0.0
2017-Jun-15 16:00N 51°13' E 004°24'0 0.3
2017-Jun-15 15:30N 51°13' E 004°24'2 3.2
2017-Jun-15 15:00N 51°14' E 004°22'8 7.8
2017-Jun-15 14:00N 51°21' E 004°15'5 9.4
2017-Jun-15 13:30N 51°22' E 004°08'510.8
2017-Jun-15 13:01N 51°26' E 004°01'612.3
2017-Jun-15 12:31N 51°21' E 003°54'611.9
2017-Jun-15 12:00N 51°22' E 003°44'611.2
2017-Jun-15 11:30N 51°27' E 003°40'2 3.7
2017-Jun-15 11:00N 51°29' E 003°42'0 0.0
2017-Jun-15 10:31N 51°29' E 003°42'0 0.0
2017-Jun-15 09:48N 51°29' E 003°42'0 0.0
2017-Jun-15 09:19N 51°29' E 003°42'0 0.0
2017-Jun-15 09:00N 51°29' E 003°42'0 0.0
2017-Jun-15 08:24N 51°29' E 003°42'0 0.0
2017-Jun-15 07:55N 51°29' E 003°42'0 0.0
2017-Jun-15 07:30N 51°29' E 003°42'0 0.0
2017-Jun-15 06:55N 51°29' E 003°42'0 0.0
2017-Jun-15 06:19N 51°29' E 003°42'0 0.0
2017-Jun-15 05:37N 51°29' E 003°42'0 0.0
2017-Jun-15 05:25N 51°29' E 003°42'0 0.0
2017-Jun-15 04:55N 51°29' E 003°42'0 0.0
2017-Jun-15 04:29N 51°29' E 003°42'1 1.7
2017-Jun-15 04:00N 51°28' E 003°42'3 6.9
2017-Jun-15 03:30N 51°26' E 003°37'611.5
2017-Jun-15 03:00N 51°25' E 003°28'816.2
2017-Jun-15 02:30N 51°25' E 003°15'815.0
2017-Jun-15 02:01N 51°24' E 003°03'714.0
2017-Jun-15 01:30N 51°22' E 002°53'713.1
2017-Jun-15 01:00N 51°22' E 002°42'4 8.6
2017-Jun-15 00:31N 51°22' E 002°35'815.9
2017-Jun-15 00:00N 51°20' E 002°23'918.3
2017-Jun-14 23:30N 51°15' E 002°11'917.9
2017-Jun-14 23:01N 51°10' E 001°59'917.5
2017-Jun-14 22:30N 51°06' E 001°47'917.4
2017-Jun-14 22:00N 50°59' E 001°37'817.0
2017-Jun-14 21:30N 50°52' E 001°29'917.8
2017-Jun-14 21:00N 50°44' E 001°25'918.1
2017-Jun-14 20:30N 50°37' E 001°16'1018.5
2017-Jun-14 19:59N 50°30' E 001°05'1018.1
2017-Jun-14 19:25N 50°26' E 000°50'1017.3
2017-Jun-14 18:50N 50°23' E 000°35'515.5
2017-Jun-14 18:30N 50°21' E 000°28'713.6
2017-Jun-14 18:00N 50°20' E 000°17'815.7
2017-Jun-14 17:31N 50°18' E 000°06'815.6
2017-Jun-14 17:01N 50°16' W 000°06'917.4
2017-Jun-14 16:31N 50°14' W 000°19'917.9
2017-Jun-14 16:00N 50°11' W 000°33'917.9
2017-Jun-14 15:31N 50°09' W 000°46'918.3
2017-Jun-14 15:00N 50°07' W 001°00'918.8
2017-Jun-14 14:30N 50°05' W 001°15'2019.9
2017-Jun-14 13:31N 49°60' W 001°45'1020.6
2017-Jun-14 13:00N 49°59' W 002°01'6400.1
2017-Jun-14 13:00N 49°54' W 001°54'1530.9 080 / 181013.010.8 14.012.213.0
2017-Jun-14 12:30N 49°57' W 002°17'1121.5
2017-Jun-14 11:59N 49°54' W 002°34'1021.2
2017-Jun-14 11:31N 49°52' W 002°49'1020.9
2017-Jun-14 11:01N 49°51' W 003°05'1020.9
2017-Jun-14 10:30N 49°50' W 003°21'1020.8
2017-Jun-14 10:01N 49°48' W 003°37'1120.6
2017-Jun-14 09:30N 49°46' W 003°53'918.7
2017-Jun-14 09:01N 49°47' W 004°08'918.6
2017-Jun-14 08:31N 49°47' W 004°22'918.4
2017-Jun-14 08:00N 49°49' W 004°36'918.3
2017-Jun-14 07:30N 49°50' W 004°50'918.4
2017-Jun-14 07:00N 49°51' W 005°05'4327.9
2017-Jun-14 07:00N 49°48' W 005°00'1325.7 070 / 81014.010.8 14.014.014.5
2017-Jun-14 06:30N 49°51' W 005°19'1118.0
2017-Jun-14 05:53N 49°52' W 005°36'1017.8
2017-Jun-14 05:18N 49°52' W 005°52'517.5
2017-Jun-14 05:01N 49°53' W 005°60'9547.8
2017-Jun-14 05:00N 49°48' W 005°48'1633.3 050 / 61014.010.8 14.014.014.0
2017-Jun-14 04:31N 50°01' W 006°02'816.7
2017-Jun-14 04:01N 50°10' W 006°01'917.0
2017-Jun-14 03:30N 50°18' W 006°02'917.4
2017-Jun-14 03:01N 50°27' W 006°02'917.6
2017-Jun-14 02:30N 50°35' W 006°06'917.8
2017-Jun-14 02:01N 50°43' W 006°12'918.3
2017-Jun-14 01:30N 50°52' W 006°17'918.2
2017-Jun-14 01:01N 51°00' W 006°22'7413.6
2017-Jun-14 01:00N 50°54' W 006°18'1633.3 130 / 81015.010.8 14.012.214.0
2017-Jun-14 00:30N 51°09' W 006°28'918.0
2017-Jun-14 00:01N 51°17' W 006°33'917.9
2017-Jun-13 23:30N 51°26' W 006°38'917.8
2017-Jun-13 23:01N 51°34' W 006°42'917.8
2017-Jun-13 22:29N 51°43' W 006°48'818.0
2017-Jun-13 22:00N 51°51' W 006°53'917.7
2017-Jun-13 21:31N 51°59' W 006°58'816.1
2017-Jun-13 21:01N 52°07' W 006°59'5 9.3
2017-Jun-13 20:30N 52°12' W 006°56'4 7.6
2017-Jun-13 20:00N 52°15' W 006°59'2 3.6
2017-Jun-13 19:29N 52°16' W 007°02'0 0.0
2017-Jun-13 18:59N 52°16' W 007°02'  
Track history (hours):
 
Tides and Currents Weather Stations Pressure Air Temp Water Temp Dewpoint Dewpoint Depression Visibility Wind Speed Wind Dir Waves Ship Positions

Prinsendam

Operator: Holland America Line

Last reported at 2017-Jun-23 18:30 UTC. Time now 2017-Jun-23 18:51 UTC.
Position N 63°30' E 009°04'.

Type: Ship. MMSI: 244126000.

Date/timePositionNaut miles runAvg speedWind from/ knotsBaromVisibWave heightAir tempDewpointWater temp
2017-Jun-23 18:30N 63°30' E 009°04'917.5
2017-Jun-23 18:00N 63°34' E 009°21'918.0
2017-Jun-23 17:31N 63°39' E 009°38'713.1
2017-Jun-23 17:00N 63°35' E 009°50'917.3
2017-Jun-23 16:31N 63°28' E 010°02'917.1
2017-Jun-23 16:00N 63°29' E 010°21'3 5.5
2017-Jun-23 15:29N 63°26' E 010°24'0 0.0
2017-Jun-23 14:59N 63°26' E 010°24'0 0.0
2017-Jun-23 13:59N 63°26' E 010°24'0 0.0
2017-Jun-23 13:29N 63°26' E 010°24'0 0.0
2017-Jun-23 12:59N 63°26' E 010°24'0 0.0
2017-Jun-23 12:29N 63°26' E 010°24'0 0.0
2017-Jun-23 11:59N 63°26' E 010°24'0 0.0
2017-Jun-23 11:29N 63°26' E 010°24'0 0.0
2017-Jun-23 10:59N 63°26' E 010°24'0 0.0
2017-Jun-23 10:29N 63°26' E 010°24'0 0.0
2017-Jun-23 09:59N 63°26' E 010°24'0 0.0
2017-Jun-23 09:29N 63°26' E 010°24'1 3.1
2017-Jun-23 09:01N 63°27' E 010°21'815.0
2017-Jun-23 08:30N 63°28' E 010°04'714.8
2017-Jun-23 08:00N 63°33' E 009°51'815.3
2017-Jun-23 07:30N 63°40' E 009°44'816.1
2017-Jun-23 07:01N 63°37' E 009°28'612.8
2017-Jun-23 06:30N 63°39' E 009°15'611.1
2017-Jun-23 06:01N 63°45' E 009°13'713.6
2017-Jun-23 05:30N 63°52' E 009°15'815.6
2017-Jun-23 05:00N 63°58' E 009°24'5565.5
2017-Jun-23 05:00N 63°54' E 009°18'1326.3 140 / 131001.010.8 11.0 9.011.0
2017-Jun-23 04:30N 64°05' E 009°32'715.0
2017-Jun-23 04:00N 64°12' E 009°39'6853.5
2017-Jun-23 04:00N 64°06' E 009°36'1428.1 140 / 81001.810.8 11.0 9.011.0
2017-Jun-23 03:30N 64°19' E 009°46'1314.2
2017-Jun-23 02:34N 64°32' E 009°53'315.4
2017-Jun-23 02:23N 64°35' E 009°54'615.5
2017-Jun-23 02:00N 64°41' E 009°57'8714.5
2017-Jun-22 20:00N 66°06' E 010°42'2421.3 070 / 151006.010.8 9.0 6.911.0
2017-Jun-22 18:52N 66°30' E 010°52'10316.3
2017-Jun-22 12:34N 68°07' E 012°16'118.1
2017-Jun-22 12:30N 68°08' E 012°18'918.1
2017-Jun-22 12:00N 68°16' E 012°32'918.3
2017-Jun-22 11:30N 68°23' E 012°47'918.1
2017-Jun-22 11:00N 68°30' E 013°02'918.1
2017-Jun-22 10:30N 68°37' E 013°17'918.4
2017-Jun-22 10:00N 68°45' E 013°32'918.2
2017-Jun-22 09:30N 68°52' E 013°47'918.1
2017-Jun-22 09:00N 68°59' E 014°02'917.9
2017-Jun-22 08:30N 69°06' E 014°17'917.8
2017-Jun-22 08:00N 69°13' E 014°33'8630.3
2017-Jun-22 08:00N 69°06' E 014°24'1734.2 050 / 171009.610.8 10.0 9.010.0
2017-Jun-22 07:30N 69°20' E 014°49'918.1
2017-Jun-22 07:00N 69°27' E 015°06'917.9
2017-Jun-22 06:30N 69°33' E 015°25'917.5
2017-Jun-22 06:00N 69°39' E 015°43'917.2
2017-Jun-22 05:30N 69°45' E 016°01'612.8
2017-Jun-22 05:00N 69°48' E 016°18'1615.8 050 / 161009.810.8 10.0 7.9 8.0
2017-Jun-22 04:00N 70°00' E 016°48'1918.7 070 / 171010.010.8 10.0 7.9 8.0
2017-Jun-22 03:00N 70°12' E 017°30'2721.8 030 / 191009.910.8 10.0 7.9 8.0
2017-Jun-22 01:46N 70°28' E 018°33'519.2
2017-Jun-22 01:30N 70°30' E 018°47'919.1
2017-Jun-22 01:00N 70°34' E 019°13'4445.5
2017-Jun-22 01:00N 70°30' E 019°12'1224.1 040 / 201009.310.8 7.0 5.9 7.2
2017-Jun-22 00:30N 70°38' E 019°40'918.4
2017-Jun-22 00:00N 70°41' E 020°05'3317.7
2017-Jun-21 22:09N 70°53' E 021°38'317.5
2017-Jun-21 22:00N 70°54' E 021°45'3456.9
2017-Jun-21 22:00N 70°54' E 021°54'612.3 030 / 241008.3 5.4 6.0 6.0 6.5
2017-Jun-21 21:30N 70°57' E 022°09'714.2
2017-Jun-21 21:00N 71°00' E 022°30'21816.9 030 / 221008.1 5.4 6.0 6.0 6.5
2017-Jun-21 20:59N 71°01' E 022°34'917.6
2017-Jun-21 20:30N 71°04' E 022°59'917.4
2017-Jun-21 20:00N 71°07' E 023°24'917.7
2017-Jun-21 19:30N 71°10' E 023°49'917.7
2017-Jun-21 19:00N 71°12' E 024°16'918.2
2017-Jun-21 18:30N 71°12' E 024°44'918.3
2017-Jun-21 17:59N 71°12' E 025°13'919.0
2017-Jun-21 17:30N 71°12' E 025°42'918.6
2017-Jun-21 17:00N 71°09' E 026°10'816.8
2017-Jun-21 16:30N 71°01' E 026°19'815.0
2017-Jun-21 16:00N 70°58' E 025°58'1 2.4
2017-Jun-21 15:28N 70°59' E 025°58'0 0.0
2017-Jun-21 14:58N 70°59' E 025°58'0 0.0
2017-Jun-21 14:28N 70°59' E 025°58'0 0.0
2017-Jun-21 11:37N 70°59' E 025°58'1 0.5
2017-Jun-21 09:13N 70°58' E 025°58'911.4
2017-Jun-21 08:24N 71°04' E 026°20'717.7
2017-Jun-21 08:00N 71°09' E 026°05'918.0
2017-Jun-21 07:31N 71°12' E 025°39'917.7
2017-Jun-21 07:00N 71°13' E 025°11'918.0
2017-Jun-21 06:30N 71°12' E 024°44'917.9
2017-Jun-21 06:00N 71°11' E 024°16'917.8
2017-Jun-21 05:30N 71°10' E 023°49'918.2
2017-Jun-21 05:00N 71°06' E 023°23'918.4
2017-Jun-21 04:30N 71°03' E 022°57'918.0
2017-Jun-21 04:00N 70°59' E 022°32'918.3
2017-Jun-21 03:30N 70°56' E 022°06'918.1
2017-Jun-21 03:00N 70°52' E 021°40'2617.4
2017-Jun-21 01:29N 70°41' E 020°28'917.3
2017-Jun-21 01:00N 70°38' E 020°04'817.2
2017-Jun-21 00:30N 70°35' E 019°40'917.6
2017-Jun-21 00:00N 70°31' E 019°16'917.4
2017-Jun-20 23:30N 70°27' E 018°53'817.4
2017-Jun-20 23:01N 70°24' E 018°30'029.8
2017-Jun-20 23:00N 70°24' E 018°30'918.6 040 / 141002.010.8 9.0 8.010.0
2017-Jun-20 22:30N 70°18' E 018°09'1717.9
2017-Jun-20 21:33N 70°06' E 017°35'118.7
2017-Jun-20 21:31N 70°05' E 017°33'918.2
2017-Jun-20 21:00N 69°58' E 017°14'14919.7
2017-Jun-20 13:27N 68°12' E 012°24'3121.4
2017-Jun-20 12:00N 67°48' E 011°30'7518.7 150 / 6998.010.8 12.010.111.0
2017-Jun-20 08:00N 66°42' E 010°00'1919.4 240 / 15995.010.8 10.0 7.910.0
2017-Jun-20 07:00N 66°24' E 009°42'18717.0 240 / 18955.010.8 13.011.110.0
2017-Jun-19 20:00N 63°36' E 006°30'4618.0 250 / 281006.3 5.4 10.0 7.910.8
2017-Jun-19 17:26N 62°54' E 005°50'818.0
2017-Jun-19 17:00N 62°46' E 005°44'918.1
2017-Jun-19 16:30N 62°37' E 005°40'816.7
2017-Jun-19 15:59N 62°29' E 005°46'714.8
2017-Jun-19 15:30N 62°27' E 006°01'5 9.3
2017-Jun-19 15:00N 62°28' E 006°11'1 1.6
2017-Jun-19 14:28N 62°28' E 006°09'0 0.0
2017-Jun-19 13:30N 62°28' E 006°09'0 0.0
2017-Jun-19 13:00N 62°28' E 006°09'0 0.0
2017-Jun-19 12:27N 62°28' E 006°09'0 0.0
2017-Jun-19 12:00N 62°28' E 006°09'0 0.0
2017-Jun-19 11:30N 62°28' E 006°09'0 0.0
2017-Jun-19 11:00N 62°28' E 006°09'0 0.0
2017-Jun-19 10:30N 62°28' E 006°09'0 0.0
2017-Jun-19 10:00N 62°28' E 006°09'0 0.0
2017-Jun-19 09:31N 62°28' E 006°09'0 0.0
2017-Jun-19 09:01N 62°28' E 006°09'0 0.0
2017-Jun-19 08:30N 62°28' E 006°09'0 0.0
2017-Jun-19 08:01N 62°28' E 006°09'0 0.0
2017-Jun-19 07:30N 62°28' E 006°09'0 0.0
2017-Jun-19 07:00N 62°28' E 006°09'0 0.0
2017-Jun-19 06:30N 62°28' E 006°09'0 0.0
2017-Jun-19 06:00N 62°28' E 006°09'0 0.0
2017-Jun-19 05:30N 62°28' E 006°09'1 1.8
2017-Jun-19 05:00N 62°28' E 006°11'510.4
2017-Jun-19 04:30N 62°27' E 005°60'612.9
2017-Jun-19 04:00N 62°29' E 005°46'5382.0
2017-Jun-19 04:00N 62°24' E 005°42'815.7 240 / 341012.910.8 12.010.112.0
2017-Jun-19 03:30N 62°29' E 005°30'816.1
2017-Jun-19 03:00N 62°26' E 005°14'2240.7
2017-Jun-19 03:00N 62°24' E 005°12'713.7 220 / 261013.510.8 11.0 9.012.0
2017-Jun-19 02:30N 62°21' E 004°59'918.8
2017-Jun-19 02:00N 62°15' E 004°43'6616.4
2017-Jun-18 22:00N 61°12' E 004°06'2424.0 230 / 231016.0 5.4 11.011.011.5
2017-Jun-18 21:00N 60°48' E 004°06'9218.5 230 / 231016.7 5.4 12.012.013.0
2017-Jun-18 16:01N 59°16' E 004°11'719.2
2017-Jun-18 15:39N 59°09' E 004°11'1219.2
2017-Jun-18 15:00N 58°57' E 004°10'918.9
2017-Jun-18 14:30N 58°47' E 004°10'1718.8
2017-Jun-18 13:35N 58°30' E 004°10'218.9
2017-Jun-18 13:30N 58°28' E 004°10'918.7
2017-Jun-18 13:00N 58°19' E 004°12'1919.0
2017-Jun-18 12:00N 58°00' E 004°06'15018.8 280 / 181018.6 5.4 17.516.713.0
2017-Jun-18 04:00N 55°30' E 004°06'9819.5 250 / 271020.0 5.4 15.013.213.0
2017-Jun-17 23:00N 53°54' E 004°36'8322.5 240 / 91024.0 5.4 15.014.114.0
2017-Jun-17 22:58N 54°02' E 004°39'2317.8
2017-Jun-17 21:39N 53°39' E 004°48'415.8
2017-Jun-17 21:23N 53°35' E 004°49'615.1
2017-Jun-17 21:00N 53°30' E 004°46'919.5
2017-Jun-17 20:31N 53°21' E 004°40'1019.4
2017-Jun-17 20:01N 53°12' E 004°33'1019.1
2017-Jun-17 19:31N 53°04' E 004°26'918.7
2017-Jun-17 19:01N 52°55' E 004°19'292.2
2017-Jun-17 19:00N 52°54' E 004°18'815.8 200 / 41023.8 5.4 20.017.615.8
2017-Jun-17 18:30N 52°47' E 004°12'815.9
2017-Jun-17 18:00N 52°39' E 004°13'918.1
2017-Jun-17 17:31N 52°33' E 004°23'612.8
2017-Jun-17 17:00N 52°28' E 004°31'3 6.9
2017-Jun-17 16:31N 52°28' E 004°36'1 2.1
2017-Jun-17 16:00N 52°28' E 004°38'4 8.0
2017-Jun-17 15:31N 52°26' E 004°44'4 8.2
2017-Jun-17 15:00N 52°25' E 004°51'3 6.9
2017-Jun-17 14:30N 52°23' E 004°55'0 0.2
2017-Jun-17 13:30N 52°23' E 004°55'0 0.0
2017-Jun-17 13:00N 52°23' E 004°55'0 0.0
2017-Jun-17 12:30N 52°23' E 004°55'0 0.0
2017-Jun-17 12:00N 52°23' E 004°55'0 0.0
2017-Jun-17 11:30N 52°23' E 004°55'0 0.0
2017-Jun-17 11:00N 52°23' E 004°55'0 0.0
2017-Jun-17 10:30N 52°23' E 004°55'0 0.0
2017-Jun-17 10:00N 52°23' E 004°55'0 0.0
2017-Jun-17 09:30N 52°23' E 004°55'0 0.0
2017-Jun-17 09:00N 52°23' E 004°55'0 0.0
2017-Jun-17 08:30N 52°23' E 004°55'0 0.0
2017-Jun-17 08:00N 52°23' E 004°55'0 0.0
2017-Jun-17 07:30N 52°23' E 004°55'0 0.0
2017-Jun-17 07:00N 52°23' E 004°55'0 0.0
2017-Jun-17 06:30N 52°23' E 004°55'0 0.0
2017-Jun-17 06:00N 52°23' E 004°55'0 0.0
2017-Jun-17 05:30N 52°23' E 004°55'0 0.0
2017-Jun-17 05:00N 52°23' E 004°55'0 0.0
2017-Jun-17 04:30N 52°23' E 004°55'0 0.0
2017-Jun-17 04:00N 52°23' E 004°55'0 0.3
2017-Jun-17 03:30N 52°23' E 004°55'2 3.5
2017-Jun-17 03:00N 52°24' E 004°53'4 7.8
2017-Jun-17 02:30N 52°26' E 004°47'4 7.9
2017-Jun-17 02:00N 52°27' E 004°41'3 5.7
2017-Jun-17 01:30N 52°28' E 004°37'1 1.2
2017-Jun-17 01:01N 52°28' E 004°36'4 7.2
2017-Jun-17 00:30N 52°28' E 004°30'5 9.0
2017-Jun-17 00:00N 52°29' E 004°22'714.6
2017-Jun-16 23:30N 52°29' E 004°10'918.9
2017-Jun-16 23:00N 52°26' E 003°56'816.1
2017-Jun-16 22:30N 52°25' E 003°42'917.4
2017-Jun-16 22:00N 52°19' E 003°32'1326.2
2017-Jun-16 21:30N 52°06' E 003°26'5 9.6
2017-Jun-16 21:00N 52°02' E 003°25'816.2
2017-Jun-16 20:30N 51°54' E 003°23'816.8
2017-Jun-16 20:00N 51°46' E 003°17'713.7
2017-Jun-16 19:30N 51°40' E 003°20'917.5
2017-Jun-16 19:00N 51°31' E 003°26'714.7
2017-Jun-16 18:30N 51°26' E 003°34'5 9.0
2017-Jun-16 18:00N 51°26' E 003°41'714.8
2017-Jun-16 17:30N 51°21' E 003°50'612.3
2017-Jun-16 17:00N 51°25' E 003°57'3 6.6
2017-Jun-16 16:30N 51°23' E 004°02'510.8
2017-Jun-16 16:00N 51°24' E 004°11'510.8
2017-Jun-16 15:30N 51°20' E 004°16'4 8.0
2017-Jun-16 15:01N 51°16' E 004°18'4 4.5
2017-Jun-16 14:00N 51°13' E 004°24'0 0.0
2017-Jun-16 13:30N 51°13' E 004°24'0 0.0
2017-Jun-16 13:00N 51°13' E 004°24'0 0.0
2017-Jun-16 12:30N 51°13' E 004°24'0 0.0
2017-Jun-16 12:00N 51°13' E 004°24'0 0.0
2017-Jun-16 11:30N 51°13' E 004°24'0 0.0
2017-Jun-16 11:00N 51°13' E 004°24'0 0.0
2017-Jun-16 10:30N 51°13' E 004°24'0 0.0
2017-Jun-16 10:00N 51°13' E 004°24'0 0.0
2017-Jun-16 09:30N 51°13' E 004°24'0 0.0
2017-Jun-16 09:00N 51°13' E 004°24'0 0.0
2017-Jun-16 08:30N 51°13' E 004°24'0 0.0
2017-Jun-16 08:00N 51°13' E 004°24'0 0.0
2017-Jun-16 07:30N 51°13' E 004°24'0 0.0
2017-Jun-16 07:00N 51°13' E 004°24'0 0.0
2017-Jun-16 06:30N 51°13' E 004°24'0 0.0
2017-Jun-16 06:00N 51°13' E 004°24'0 0.0
2017-Jun-16 05:30N 51°13' E 004°24'0 0.0
2017-Jun-16 05:00N 51°13' E 004°24'0 0.0
2017-Jun-16 04:30N 51°13' E 004°24'0 0.0
2017-Jun-16 04:00N 51°13' E 004°24'0 0.0
2017-Jun-16 03:30N 51°13' E 004°24'0 0.0
2017-Jun-16 03:00N 51°13' E 004°24'0 0.0
2017-Jun-16 02:30N 51°13' E 004°24'0 0.0
2017-Jun-16 02:00N 51°13' E 004°24'0 0.0
2017-Jun-16 01:30N 51°13' E 004°24'0 0.0
2017-Jun-16 01:00N 51°13' E 004°24'0 0.0
2017-Jun-16 00:30N 51°13' E 004°24'0 0.0
2017-Jun-16 00:00N 51°13' E 004°24'0 0.0
2017-Jun-15 23:30N 51°13' E 004°24'0 0.0
2017-Jun-15 23:00N 51°13' E 004°24'0 0.0
2017-Jun-15 22:30N 51°13' E 004°24'0 0.0
2017-Jun-15 22:00N 51°13' E 004°24'0 0.0
2017-Jun-15 21:30N 51°13' E 004°24'0 0.0
2017-Jun-15 21:00N 51°13' E 004°24'0 0.0
2017-Jun-15 20:30N 51°13' E 004°24'0 0.0
2017-Jun-15 20:00N 51°13' E 004°24'0 0.0
2017-Jun-15 19:30N 51°13' E 004°24'0 0.0
2017-Jun-15 19:00N 51°13' E 004°24'0 0.0
2017-Jun-15 18:30N 51°13' E 004°24'0 0.0
2017-Jun-15 18:00N 51°13' E 004°24'0 0.0
2017-Jun-15 17:30N 51°13' E 004°24'0 0.0
2017-Jun-15 17:00N 51°13' E 004°24'0 0.0
2017-Jun-15 16:30N 51°13' E 004°24'0 0.0
2017-Jun-15 16:00N 51°13' E 004°24'0 0.3
2017-Jun-15 15:30N 51°13' E 004°24'2 3.2
2017-Jun-15 15:00N 51°14' E 004°22'8 7.8
2017-Jun-15 14:00N 51°21' E 004°15'5 9.4
2017-Jun-15 13:30N 51°22' E 004°08'510.8
2017-Jun-15 13:01N 51°26' E 004°01'612.3
2017-Jun-15 12:31N 51°21' E 003°54'611.9
2017-Jun-15 12:00N 51°22' E 003°44'611.2
2017-Jun-15 11:30N 51°27' E 003°40'2 3.7
2017-Jun-15 11:00N 51°29' E 003°42'0 0.0
2017-Jun-15 10:31N 51°29' E 003°42'0 0.0
2017-Jun-15 09:48N 51°29' E 003°42'0 0.0
2017-Jun-15 09:19N 51°29' E 003°42'0 0.0
2017-Jun-15 09:00N 51°29' E 003°42'0 0.0
2017-Jun-15 08:24N 51°29' E 003°42'0 0.0
2017-Jun-15 07:55N 51°29' E 003°42'0 0.0
2017-Jun-15 07:30N 51°29' E 003°42'0 0.0
2017-Jun-15 06:55N 51°29' E 003°42'0 0.0
2017-Jun-15 06:19N 51°29' E 003°42'0 0.0
2017-Jun-15 05:37N 51°29' E 003°42'0 0.0
2017-Jun-15 05:25N 51°29' E 003°42'0 0.0
2017-Jun-15 04:55N 51°29' E 003°42'0 0.0
2017-Jun-15 04:29N 51°29' E 003°42'1 1.7
2017-Jun-15 04:00N 51°28' E 003°42'3 6.9
2017-Jun-15 03:30N 51°26' E 003°37'611.5
2017-Jun-15 03:00N 51°25' E 003°28'816.2
2017-Jun-15 02:30N 51°25' E 003°15'815.0
2017-Jun-15 02:01N 51°24' E 003°03'714.0
2017-Jun-15 01:30N 51°22' E 002°53'713.1
2017-Jun-15 01:00N 51°22' E 002°42'4 8.6
2017-Jun-15 00:31N 51°22' E 002°35'815.9
2017-Jun-15 00:00N 51°20' E 002°23'918.3
2017-Jun-14 23:30N 51°15' E 002°11'917.9
2017-Jun-14 23:01N 51°10' E 001°59'917.5
2017-Jun-14 22:30N 51°06' E 001°47'917.4
2017-Jun-14 22:00N 50°59' E 001°37'817.0
2017-Jun-14 21:30N 50°52' E 001°29'917.8
2017-Jun-14 21:00N 50°44' E 001°25'918.1
2017-Jun-14 20:30N 50°37' E 001°16'1018.5
2017-Jun-14 19:59N 50°30' E 001°05'1018.1
2017-Jun-14 19:25N 50°26' E 000°50'1017.3
2017-Jun-14 18:50N 50°23' E 000°35'515.5
2017-Jun-14 18:30N 50°21' E 000°28'713.6
2017-Jun-14 18:00N 50°20' E 000°17'815.7
2017-Jun-14 17:31N 50°18' E 000°06'815.6
2017-Jun-14 17:01N 50°16' W 000°06'917.4
2017-Jun-14 16:31N 50°14' W 000°19'917.9
2017-Jun-14 16:00N 50°11' W 000°33'917.9
2017-Jun-14 15:31N 50°09' W 000°46'918.3
2017-Jun-14 15:00N 50°07' W 001°00'918.8
2017-Jun-14 14:30N 50°05' W 001°15'2019.9
2017-Jun-14 13:31N 49°60' W 001°45'1020.6
2017-Jun-14 13:00N 49°59' W 002°01'6400.1
2017-Jun-14 13:00N 49°54' W 001°54'1530.9 080 / 181013.010.8 14.012.213.0
2017-Jun-14 12:30N 49°57' W 002°17'1121.5
2017-Jun-14 11:59N 49°54' W 002°34'1021.2
2017-Jun-14 11:31N 49°52' W 002°49'1020.9
2017-Jun-14 11:01N 49°51' W 003°05'1020.9
2017-Jun-14 10:30N 49°50' W 003°21'1020.8
2017-Jun-14 10:01N 49°48' W 003°37'1120.6
2017-Jun-14 09:30N 49°46' W 003°53'918.7
2017-Jun-14 09:01N 49°47' W 004°08'918.6
2017-Jun-14 08:31N 49°47' W 004°22'918.4
2017-Jun-14 08:00N 49°49' W 004°36'918.3
2017-Jun-14 07:30N 49°50' W 004°50'918.4
2017-Jun-14 07:00N 49°51' W 005°05'4327.9
2017-Jun-14 07:00N 49°48' W 005°00'1325.7 070 / 81014.010.8 14.014.014.5
2017-Jun-14 06:30N 49°51' W 005°19'1118.0
2017-Jun-14 05:53N 49°52' W 005°36'1017.8
2017-Jun-14 05:18N 49°52' W 005°52'517.5
2017-Jun-14 05:01N 49°53' W 005°60'9547.8
2017-Jun-14 05:00N 49°48' W 005°48'1633.3 050 / 61014.010.8 14.014.014.0
2017-Jun-14 04:31N 50°01' W 006°02'816.7
2017-Jun-14 04:01N 50°10' W 006°01'917.0
2017-Jun-14 03:30N 50°18' W 006°02'917.4
2017-Jun-14 03:01N 50°27' W 006°02'917.6
2017-Jun-14 02:30N 50°35' W 006°06'917.8
2017-Jun-14 02:01N 50°43' W 006°12'918.3
2017-Jun-14 01:30N 50°52' W 006°17'918.2
2017-Jun-14 01:01N 51°00' W 006°22'7413.6
2017-Jun-14 01:00N 50°54' W 006°18'1633.3 130 / 81015.010.8 14.012.214.0
2017-Jun-14 00:30N 51°09' W 006°28'918.0
2017-Jun-14 00:01N 51°17' W 006°33'917.9
2017-Jun-13 23:30N 51°26' W 006°38'917.8
2017-Jun-13 23:01N 51°34' W 006°42'917.8
2017-Jun-13 22:29N 51°43' W 006°48'818.0
2017-Jun-13 22:00N 51°51' W 006°53'917.7
2017-Jun-13 21:31N 51°59' W 006°58'816.1
2017-Jun-13 21:01N 52°07' W 006°59'5 9.3
2017-Jun-13 20:30N 52°12' W 006°56'4 7.6
2017-Jun-13 20:00N 52°15' W 006°59'2 3.6
2017-Jun-13 19:29N 52°16' W 007°02'0 0.0
2017-Jun-13 18:59N 52°16' W 007°02'  

Dump ship's entire track history